Time;durP1;ratioP1;P1;durP2;ratioP2;P2;SDS_P1;SDS_P2;PMS_P1;PMS_P2;Temp;Humidity;BMP_temperature;BMP_pressure;BME280_temperature;BME280_humidity;BME280_pressure;Samples;Min_cycle;Max_cycle;Signal;HPM_P1;HPM_P2
2023/01/13 00:00:39;;;;;;;0.23;0.20;;;10.50;99.90;;;;;;4193585;28;20211;-75
2023/01/13 00:02:41;;;;;;;0.30;0.30;;;10.50;99.90;;;;;;4191252;28;20904;-74
2023/01/13 00:04:43;;;;;;;0.20;0.20;;;10.40;99.90;;;;;;4193656;28;20212;-77
2023/01/13 00:06:45;;;;;;;0.60;0.30;;;10.50;99.90;;;;;;4191302;28;20778;-76
2023/01/13 00:08:49;;;;;;;2.17;0.30;;;10.40;99.90;;;;;;4192389;28;20265;-76
2023/01/13 00:10:51;;;;;;;0.20;0.13;;;10.40;99.90;;;;;;4192353;28;20232;-76
2023/01/13 00:12:54;;;;;;;0.37;0.30;;;10.40;99.90;;;;;;4191143;28;20409;-76
2023/01/13 00:14:56;;;;;;;0.53;0.37;;;10.30;99.90;;;;;;4192129;28;20300;-75
2023/01/13 00:16:58;;;;;;;0.30;0.30;;;10.40;99.90;;;;;;4192645;28;20771;-75
2023/01/13 00:19:00;;;;;;;0.87;0.40;;;10.30;99.90;;;;;;4189393;28;20900;-76
2023/01/13 00:21:05;;;;;;;0.20;0.20;;;10.30;99.90;;;;;;4191325;28;20261;-74
2023/01/13 00:23:07;;;;;;;0.33;0.30;;;10.30;99.90;;;;;;4192644;28;20617;-75
2023/01/13 00:25:09;;;;;;;1.87;0.50;;;10.30;99.90;;;;;;4192037;28;20298;-75
2023/01/13 00:27:11;;;;;;;0.30;0.30;;;10.30;99.90;;;;;;4190779;28;20622;-75
2023/01/13 00:29:14;;;;;;;0.63;0.50;;;10.30;99.90;;;;;;4193056;28;20227;-75
2023/01/13 00:31:18;;;;;;;0.30;0.30;;;10.30;99.90;;;;;;4192133;28;20223;-75
2023/01/13 00:33:21;;;;;;;0.20;0.20;;;10.30;99.90;;;;;;4199143;28;20207;-74
2023/01/13 00:35:23;;;;;;;0.43;0.30;;;10.30;99.90;;;;;;4188293;28;20771;-76
2023/01/13 00:37:25;;;;;;;3.03;0.40;;;10.30;99.90;;;;;;4193392;28;20295;-76
2023/01/13 00:39:27;;;;;;;0.13;0.13;;;10.30;99.90;;;;;;4191967;28;20200;-76
2023/01/13 00:43:21;;;;;;;0.53;0.30;;;10.30;99.90;;;;;;4207120;28;20230;-76
2023/01/13 00:43:50;;;;;;;0.90;0.40;;;10.30;99.90;;;;;;4191383;28;20231;-75
2023/01/13 00:45:54;;;;;;;0.30;0.20;;;10.20;99.90;;;;;;4186363;28;20203;-77
2023/01/13 00:47:56;;;;;;;0.40;0.30;;;10.20;99.90;;;;;;4192004;28;20278;-76
2023/01/13 00:49:58;;;;;;;1.23;0.30;;;10.20;99.90;;;;;;4192290;28;20214;-76
2023/01/13 00:52:00;;;;;;;0.20;0.20;;;10.20;99.90;;;;;;4192675;28;20309;-76
2023/01/13 00:54:02;;;;;;;0.20;0.20;;;10.20;99.90;;;;;;4193118;28;20274;-76
2023/01/13 00:56:06;;;;;;;0.97;0.40;;;10.20;99.90;;;;;;4193761;28;20223;-76
2023/01/13 00:58:08;;;;;;;0.30;0.30;;;10.20;99.90;;;;;;4193775;28;20197;-75
2023/01/13 01:00:11;;;;;;;0.40;0.30;;;10.20;99.90;;;;;;4207566;28;20692;-76
2023/01/13 01:02:14;;;;;;;0.60;0.20;;;10.20;99.90;;;;;;4195081;28;20730;-76
2023/01/13 01:04:16;;;;;;;0.20;0.20;;;10.10;99.90;;;;;;4196521;28;20316;-76
2023/01/13 01:06:21;;;;;;;0.30;0.27;;;10.20;99.90;;;;;;4197027;28;20218;-76
2023/01/13 01:08:23;;;;;;;1.50;0.20;;;10.10;99.90;;;;;;4195626;28;20229;-75
2023/01/13 01:10:26;;;;;;;0.20;0.20;;;10.10;99.90;;;;;;4192838;28;20210;-75
2023/01/13 01:12:28;;;;;;;0.50;0.20;;;10.20;99.90;;;;;;4191868;28;20231;-76
2023/01/13 01:14:30;;;;;;;2.97;0.60;;;10.20;99.90;;;;;;4208019;28;20208;-73
2023/01/13 01:16:33;;;;;;;0.17;0.17;;;10.20;99.90;;;;;;4194714;28;20208;-75
2023/01/13 01:18:39;;;;;;;0.50;0.30;;;10.20;99.90;;;;;;4194063;28;20209;-76
2023/01/13 01:20:41;;;;;;;1.57;0.20;;;10.20;99.90;;;;;;4193391;28;20197;-73
2023/01/13 01:22:43;;;;;;;0.20;0.20;;;10.20;99.90;;;;;;4195030;28;20237;-76
2023/01/13 01:24:47;;;;;;;0.33;0.20;;;10.20;99.90;;;;;;4196276;28;20294;-76
2023/01/13 01:26:49;;;;;;;0.73;0.30;;;10.20;99.90;;;;;;4192632;28;20200;-76
2023/01/13 01:28:52;;;;;;;1.53;0.30;;;10.30;99.90;;;;;;4193393;28;20273;-75
2023/01/13 01:30:54;;;;;;;0.27;0.27;;;10.30;99.90;;;;;;4192957;28;20212;-75
2023/01/13 01:32:56;;;;;;;0.30;0.20;;;10.20;99.90;;;;;;4193131;28;20201;-74
2023/01/13 01:34:59;;;;;;;0.40;0.10;;;10.20;99.90;;;;;;4192902;28;20915;-75
2023/01/13 01:37:01;;;;;;;0.13;0.10;;;10.20;99.90;;;;;;4194513;28;20657;-75
2023/01/13 01:39:05;;;;;;;0.50;0.20;;;10.30;99.90;;;;;;4193946;28;20213;-75
2023/01/13 01:41:07;;;;;;;1.07;0.37;;;10.30;99.90;;;;;;4194088;28;20233;-76
2023/01/13 01:45:34;;;;;;;0.53;0.20;;;10.30;99.90;;;;;;4194403;28;20224;-75
2023/01/13 01:47:36;;;;;;;0.30;0.20;;;10.20;99.90;;;;;;4194676;28;20220;-76
2023/01/13 01:49:39;;;;;;;0.50;0.30;;;10.30;99.90;;;;;;4194549;28;20262;-76
2023/01/13 01:51:46;;;;;;;0.93;0.30;;;10.30;99.90;;;;;;4194769;28;20255;-76
2023/01/13 01:53:49;;;;;;;0.73;0.43;;;10.30;99.90;;;;;;4193479;28;20219;-75
2023/01/13 01:55:51;;;;;;;0.77;0.30;;;10.30;99.90;;;;;;4196438;28;20262;-75
2023/01/13 01:57:58;;;;;;;2.23;0.30;;;10.30;99.90;;;;;;4196852;28;20281;-75
2023/01/13 02:00:01;;;;;;;0.63;0.30;;;10.30;99.90;;;;;;4195373;28;20208;-75
2023/01/13 02:02:03;;;;;;;0.53;0.20;;;10.30;99.90;;;;;;4195814;28;20277;-75
2023/01/13 02:04:12;;;;;;;0.10;0.10;;;10.30;99.90;;;;;;4196059;28;20212;-75
2023/01/13 02:06:16;;;;;;;0.23;0.23;;;10.30;99.90;;;;;;4194400;28;20583;-74
2023/01/13 02:08:20;;;;;;;0.20;0.20;;;10.30;99.90;;;;;;4198453;28;20907;-74
2023/01/13 02:10:26;;;;;;;0.43;0.23;;;10.40;99.90;;;;;;4194612;28;20569;-73
2023/01/13 02:12:31;;;;;;;0.27;0.10;;;10.30;99.90;;;;;;4195846;28;20247;-73
2023/01/13 02:14:35;;;;;;;2.10;0.20;;;10.30;99.90;;;;;;4196078;28;20203;-76
2023/01/13 02:16:43;;;;;;;7.63;0.43;;;10.30;99.90;;;;;;4193350;28;20220;-76
2023/01/13 02:18:56;;;;;;;1.40;0.23;;;10.30;99.90;;;;;;4197294;28;20291;-74
2023/01/13 02:21:36;;;;;;;0.27;0.20;;;10.30;99.90;;;;;;4195022;28;20617;-74
2023/01/13 02:27:05;;;;;;;0.27;0.20;;;10.30;99.90;;;;;;4194509;28;20215;-74
2023/01/13 02:31:43;;;;;;;0.10;0.10;;;10.40;99.90;;;;;;4193918;28;20237;-75
2023/01/13 02:33:56;;;;;;;1.63;0.20;;;10.40;99.90;;;;;;4192486;28;20223;-75
2023/01/13 02:36:04;;;;;;;0.20;0.20;;;10.40;99.90;;;;;;4190880;28;20700;-75
2023/01/13 02:38:10;;;;;;;0.10;0.10;;;10.40;99.90;;;;;;4194877;28;20216;-74
2023/01/13 02:40:17;;;;;;;0.10;0.10;;;10.40;99.90;;;;;;4191559;28;20232;-75
2023/01/13 02:44:52;;;;;;;0.90;0.27;;;10.50;99.90;;;;;;4192724;28;20204;-75
2023/01/13 02:46:59;;;;;;;0.20;0.20;;;10.50;99.90;;;;;;4194467;28;20330;-74
2023/01/13 02:49:06;;;;;;;0.20;0.20;;;10.40;99.90;;;;;;4193972;28;20265;-75
2023/01/13 02:51:12;;;;;;;0.10;0.10;;;10.40;99.90;;;;;;4192951;28;20225;-76
2023/01/13 02:53:20;;;;;;;1.07;0.20;;;10.40;99.90;;;;;;4193803;28;20635;-74
2023/01/13 02:55:29;;;;;;;0.20;0.20;;;10.40;99.90;;;;;;4193103;28;20219;-75
2023/01/13 02:57:34;;;;;;;0.10;0.10;;;10.40;99.90;;;;;;4193928;28;20239;-75
2023/01/13 02:59:36;;;;;;;0.23;0.17;;;10.40;99.90;;;;;;4194759;28;20213;-75
2023/01/13 03:01:39;;;;;;;0.30;0.20;;;10.40;99.90;;;;;;4193566;28;20235;-76
2023/01/13 03:03:42;;;;;;;0.63;0.30;;;10.50;99.90;;;;;;4190588;28;20981;-75
2023/01/13 03:05:48;;;;;;;0.10;0.10;;;10.50;99.90;;;;;;4192899;28;20262;-74
2023/01/13 03:08:06;;;;;;;0.27;0.17;;;10.50;99.90;;;;;;4192740;28;20232;-73
2023/01/13 03:10:19;;;;;;;1.33;0.43;;;10.50;99.90;;;;;;4193272;28;20888;-74
2023/01/13 03:12:33;;;;;;;0.10;0.10;;;10.50;99.90;;;;;;4191478;28;20242;-73
2023/01/13 03:14:41;;;;;;;0.07;0.07;;;10.50;99.90;;;;;;4191848;28;20213;-74
2023/01/13 03:16:59;;;;;;;0.30;0.23;;;10.50;99.90;;;;;;4190584;28;20212;-77
2023/01/13 03:19:24;;;;;;;0.30;0.10;;;10.50;99.90;;;;;;4208598;28;20260;-74
2023/01/13 03:21:33;;;;;;;0.10;0.10;;;10.50;99.90;;;;;;4194859;28;20227;-74
2023/01/13 03:23:42;;;;;;;2.57;0.30;;;10.60;99.90;;;;;;4189254;28;20241;-73
2023/01/13 03:25:54;;;;;;;0.80;0.30;;;10.60;99.90;;;;;;4193105;28;20278;-74
2023/01/13 03:28:00;;;;;;;0.30;0.20;;;10.60;99.90;;;;;;4194748;28;20223;-73
2023/01/13 03:30:07;;;;;;;0.30;0.20;;;10.60;99.90;;;;;;4193968;28;20812;-73
2023/01/13 03:32:13;;;;;;;0.20;0.20;;;10.60;99.90;;;;;;4194413;28;20233;-73
2023/01/13 03:34:21;;;;;;;1.97;0.30;;;10.60;99.90;;;;;;4193368;28;20311;-74
2023/01/13 03:36:25;;;;;;;0.77;0.20;;;10.60;99.90;;;;;;4190991;28;20200;-73
2023/01/13 03:38:31;;;;;;;0.10;0.10;;;10.50;99.90;;;;;;4209256;28;20222;-75
2023/01/13 03:40:39;;;;;;;0.83;0.20;;;10.60;99.90;;;;;;4192643;28;20204;-74
2023/01/13 03:44:20;;;;;;;0.23;0.13;;;10.60;99.90;;;;;;4203705;28;20245;-75
2023/01/13 03:45:10;;;;;;;0.87;0.20;;;10.50;99.90;;;;;;4193924;28;20204;-73
2023/01/13 03:47:20;;;;;;;0.20;0.20;;;10.50;99.90;;;;;;4194415;28;20217;-74
2023/01/13 03:49:29;;;;;;;0.30;0.30;;;10.50;99.90;;;;;;4191103;28;20257;-74
2023/01/13 03:51:34;;;;;;;0.40;0.20;;;10.50;99.90;;;;;;4191658;28;20371;-74
2023/01/13 03:53:38;;;;;;;0.20;0.20;;;10.50;99.90;;;;;;4191701;28;20215;-74
2023/01/13 03:55:44;;;;;;;0.23;0.20;;;10.60;99.90;;;;;;4191267;28;20331;-76
2023/01/13 03:57:53;;;;;;;0.30;0.20;;;10.60;99.90;;;;;;4193296;28;20208;-76
2023/01/13 04:00:02;;;;;;;0.10;0.10;;;10.60;99.90;;;;;;4191632;28;20538;-76
2023/01/13 04:02:08;;;;;;;2.03;0.10;;;10.60;99.90;;;;;;4192884;28;20762;-76
2023/01/13 04:04:17;;;;;;;0.10;0.10;;;10.50;99.90;;;;;;4205096;28;20234;-75
2023/01/13 04:06:25;;;;;;;0.70;0.30;;;10.50;99.90;;;;;;4192186;28;20940;-76
2023/01/13 04:08:29;;;;;;;0.20;0.20;;;10.60;99.90;;;;;;4191059;28;20270;-75
2023/01/13 04:10:38;;;;;;;0.77;0.30;;;10.60;99.90;;;;;;4191888;28;21019;-76
2023/01/13 04:13:00;;;;;;;0.50;0.50;;;10.60;99.90;;;;;;4191476;28;20842;-76
2023/01/13 04:15:03;;;;;;;0.20;0.20;;;10.50;99.90;;;;;;4192037;28;20965;-75
2023/01/13 04:17:05;;;;;;;0.50;0.23;;;10.60;99.90;;;;;;4191249;28;20220;-75
2023/01/13 04:19:07;;;;;;;0.40;0.20;;;10.50;99.90;;;;;;4191868;28;20213;-76
2023/01/13 04:21:09;;;;;;;0.63;0.20;;;10.50;99.90;;;;;;4191762;28;20753;-74
2023/01/13 04:23:12;;;;;;;0.50;0.30;;;10.50;99.90;;;;;;4192488;28;20580;-76
2023/01/13 04:25:14;;;;;;;3.27;1.10;;;10.50;99.90;;;;;;4191556;28;20237;-75
2023/01/13 04:27:16;;;;;;;8.73;4.23;;;10.50;99.90;;;;;;4192098;28;20215;-76
2023/01/13 04:29:21;;;;;;;16.93;8.00;;;10.40;99.90;;;;;;4190869;28;20212;-75
2023/01/13 04:31:23;;;;;;;9.37;4.43;;;10.40;99.90;;;;;;4191086;28;20236;-76
2023/01/13 04:33:25;;;;;;;6.27;2.90;;;10.40;99.90;;;;;;4184485;28;21098;-74
2023/01/13 04:35:27;;;;;;;9.23;4.33;;;10.40;99.90;;;;;;4190507;28;20268;-75
2023/01/13 04:37:29;;;;;;;6.33;2.97;;;10.40;99.90;;;;;;4191339;28;20224;-75
2023/01/13 04:39:32;;;;;;;2.80;1.30;;;10.40;99.90;;;;;;4194984;28;20201;-76
2023/01/13 04:43:50;;;;;;;0.70;0.60;;;10.30;99.90;;;;;;4193642;28;21268;-75
2023/01/13 04:45:52;;;;;;;2.13;0.80;;;10.30;99.90;;;;;;4195162;28;21090;-74
2023/01/13 04:47:54;;;;;;;0.83;0.60;;;10.30;99.90;;;;;;4210811;28;20212;-75
2023/01/13 04:49:56;;;;;;;2.53;0.67;;;10.30;99.90;;;;;;4196072;28;20371;-75
2023/01/13 04:51:58;;;;;;;1.07;0.60;;;10.30;99.90;;;;;;4194833;28;20228;-75
2023/01/13 04:54:00;;;;;;;1.93;0.50;;;10.30;99.90;;;;;;4196847;28;20209;-75
2023/01/13 04:56:04;;;;;;;1.30;0.50;;;10.30;99.90;;;;;;4194275;28;20291;-75
2023/01/13 04:58:07;;;;;;;0.57;0.40;;;10.30;99.90;;;;;;4196613;28;20200;-75
2023/01/13 05:00:12;;;;;;;2.57;0.43;;;10.30;99.90;;;;;;4195470;28;20204;-74
2023/01/13 05:02:18;;;;;;;1.17;0.53;;;10.30;99.90;;;;;;4194232;28;20641;-76
2023/01/13 05:04:20;;;;;;;1.77;0.40;;;10.30;99.90;;;;;;4212257;28;20220;-77
2023/01/13 05:06:22;;;;;;;1.13;0.50;;;10.30;99.90;;;;;;4196607;28;20201;-77
2023/01/13 05:08:24;;;;;;;0.40;0.40;;;10.30;99.90;;;;;;4211948;28;20214;-77
2023/01/13 05:10:27;;;;;;;0.23;0.20;;;10.30;99.90;;;;;;4195310;28;20241;-77
2023/01/13 05:17:20;;;;;;;1.17;0.40;;;10.20;99.90;;;;;;4160730;28;20218;-76
2023/01/13 05:19:22;;;;;;;2.50;0.30;;;10.30;99.90;;;;;;4192462;28;20216;-77
2023/01/13 05:26:02;;;;;;;0.67;0.20;;;10.20;99.90;;;;;;4194242;28;20204;-76
2023/01/13 05:28:06;;;;;;;0.63;0.20;;;10.30;99.90;;;;;;4210125;28;20208;-76
2023/01/13 05:30:09;;;;;;;2.67;0.40;;;10.20;99.90;;;;;;4194947;28;20693;-75
2023/01/13 05:32:11;;;;;;;0.93;0.20;;;10.20;99.90;;;;;;4209496;28;20269;-76
2023/01/13 05:34:13;;;;;;;3.50;0.50;;;10.20;99.90;;;;;;4195591;28;20245;-76
2023/01/13 05:36:15;;;;;;;2.30;0.20;;;10.20;99.90;;;;;;4193815;28;20201;-75
2023/01/13 05:38:20;;;;;;;0.23;0.23;;;10.20;99.90;;;;;;4193237;28;20557;-76
2023/01/13 05:45:03;;;;;;;0.87;0.30;;;10.20;99.90;;;;;;4187084;28;20204;-77
2023/01/13 05:47:05;;;;;;;0.77;0.30;;;10.20;99.90;;;;;;4196169;28;20200;-76
2023/01/13 05:49:07;;;;;;;2.57;0.43;;;10.20;99.90;;;;;;4190692;28;20218;-75
2023/01/13 05:51:11;;;;;;;1.07;0.33;;;10.20;99.90;;;;;;4188147;28;20240;-74
2023/01/13 05:53:16;;;;;;;0.50;0.20;;;10.20;99.90;;;;;;4192749;28;20746;-76
2023/01/13 05:55:18;;;;;;;2.23;0.40;;;10.20;99.90;;;;;;4196316;28;20219;-76
2023/01/13 05:57:20;;;;;;;1.37;0.30;;;10.30;99.90;;;;;;4194929;28;20241;-75
2023/01/13 05:59:22;;;;;;;0.50;0.23;;;10.20;99.90;;;;;;4197437;28;20253;-74
2023/01/13 06:01:25;;;;;;;0.43;0.30;;;10.20;99.90;;;;;;4196808;28;20228;-76
2023/01/13 06:03:28;;;;;;;0.43;0.30;;;10.20;99.90;;;;;;4190672;28;20240;-74
2023/01/13 06:05:30;;;;;;;0.87;0.37;;;10.20;99.90;;;;;;4186428;28;20308;-74
2023/01/13 06:07:32;;;;;;;1.07;0.30;;;10.20;99.90;;;;;;4211108;28;20250;-76
2023/01/13 06:09:35;;;;;;;0.77;0.30;;;10.20;99.90;;;;;;4194964;28;20231;-76
2023/01/13 06:11:37;;;;;;;0.83;0.50;;;10.20;99.90;;;;;;4191666;28;20903;-76
2023/01/13 06:13:39;;;;;;;0.53;0.40;;;10.20;99.90;;;;;;4192378;28;21142;-76
2023/01/13 06:15:41;;;;;;;1.60;0.30;;;10.20;99.90;;;;;;4192427;28;20736;-76
2023/01/13 06:17:45;;;;;;;0.27;0.20;;;10.20;99.90;;;;;;4193029;28;20208;-77
2023/01/13 06:19:47;;;;;;;0.97;0.30;;;10.20;99.90;;;;;;4192576;28;20299;-75
2023/01/13 06:21:51;;;;;;;1.87;0.50;;;10.20;99.90;;;;;;4193542;28;20307;-77
2023/01/13 06:23:53;;;;;;;0.47;0.30;;;10.20;99.90;;;;;;4208297;28;20215;-76
2023/01/13 06:26:04;;;;;;;1.37;0.40;;;10.10;99.90;;;;;;4193115;28;20617;-76
2023/01/13 06:28:06;;;;;;;0.90;0.40;;;10.10;99.90;;;;;;4192633;28;20210;-76
2023/01/13 06:30:10;;;;;;;2.40;0.40;;;10.00;99.90;;;;;;4190904;28;20939;-75
2023/01/13 06:32:17;;;;;;;0.40;0.40;;;9.90;99.90;;;;;;4194251;28;20302;-74
2023/01/13 06:34:20;;;;;;;2.17;0.50;;;9.80;99.90;;;;;;4193685;28;20280;-75
2023/01/13 06:36:27;;;;;;;2.13;0.40;;;9.70;99.90;;;;;;4192195;28;20214;-75
2023/01/13 06:38:33;;;;;;;3.87;0.70;;;9.60;99.90;;;;;;4193637;28;20206;-76
2023/01/13 06:40:35;;;;;;;0.97;0.40;;;9.60;99.90;;;;;;4190530;28;20203;-75
2023/01/13 06:44:57;;;;;;;1.90;0.50;;;9.50;99.90;;;;;;4189422;28;20276;-79
2023/01/13 06:46:59;;;;;;;0.50;0.37;;;9.50;99.90;;;;;;4192113;28;20209;-75
2023/01/13 06:49:01;;;;;;;2.77;0.63;;;9.40;99.90;;;;;;4191389;28;20198;-75
2023/01/13 06:51:05;;;;;;;1.60;0.40;;;9.30;99.90;;;;;;4191512;28;20222;-75
2023/01/13 06:53:07;;;;;;;0.97;0.60;;;9.10;99.90;;;;;;4191960;28;20296;-75
2023/01/13 06:55:09;;;;;;;2.63;0.37;;;8.80;99.90;;;;;;4193855;28;20236;-74
2023/01/13 06:57:11;;;;;;;0.80;0.47;;;8.60;99.90;;;;;;4192653;28;20202;-74
2023/01/13 06:59:13;;;;;;;1.63;0.33;;;8.40;99.90;;;;;;4194906;28;20202;-76
2023/01/13 07:01:15;;;;;;;0.40;0.40;;;8.30;99.90;;;;;;4193650;28;20608;-74
2023/01/13 07:03:18;;;;;;;0.57;0.43;;;8.20;99.90;;;;;;4193528;28;20213;-75
2023/01/13 07:05:21;;;;;;;1.23;0.50;;;8.10;99.90;;;;;;4192806;28;20470;-73
2023/01/13 07:07:24;;;;;;;1.57;0.40;;;8.00;99.90;;;;;;4188853;28;20811;-75
2023/01/13 07:09:26;;;;;;;4.03;0.40;;;8.00;99.90;;;;;;4193839;28;20467;-75
2023/01/13 07:11:28;;;;;;;1.00;0.50;;;7.90;99.90;;;;;;4185371;28;21258;-77
2023/01/13 07:16:01;;;;;;;1.80;0.80;;;7.80;99.90;;;;;;4180287;28;20509;-75
2023/01/13 07:18:03;;;;;;;3.43;1.47;;;7.80;99.90;;;;;;4193901;28;20516;-74
2023/01/13 07:20:06;;;;;;;6.60;2.80;;;7.70;99.90;;;;;;4195784;28;20478;-75
2023/01/13 07:22:08;;;;;;;5.70;2.70;;;7.70;99.90;;;;;;4190222;28;20464;-73
2023/01/13 07:24:12;;;;;;;4.40;2.03;;;7.70;99.90;;;;;;4193549;28;20452;-74
2023/01/13 07:26:15;;;;;;;8.20;2.50;;;7.60;99.90;;;;;;4193505;28;20450;-74
2023/01/13 07:28:17;;;;;;;3.93;1.23;;;7.70;99.90;;;;;;4192020;28;20546;-74
2023/01/13 07:30:19;;;;;;;0.83;0.60;;;7.60;99.90;;;;;;4193326;28;20811;-74
2023/01/13 07:32:21;;;;;;;2.50;0.87;;;7.60;99.90;;;;;;4209105;28;20474;-74
2023/01/13 07:34:23;;;;;;;2.00;0.50;;;7.60;99.90;;;;;;4196203;28;20450;-76
2023/01/13 07:36:25;;;;;;;3.50;0.40;;;7.60;99.90;;;;;;4205920;28;20522;-74
2023/01/13 07:38:28;;;;;;;1.50;0.60;;;7.60;99.90;;;;;;4192961;28;20470;-74
2023/01/13 07:40:31;;;;;;;3.00;1.50;;;7.60;99.90;;;;;;4193714;28;20483;-75
2023/01/13 07:44:55;;;;;;;4.10;1.80;;;7.50;99.90;;;;;;4190723;28;20510;-73
2023/01/13 07:46:57;;;;;;;1.40;0.80;;;7.60;99.90;;;;;;4193467;28;20454;-74
2023/01/13 07:49:09;;;;;;;2.03;1.10;;;7.60;99.90;;;;;;4192742;28;20451;-74
2023/01/13 07:51:12;;;;;;;2.20;0.90;;;7.60;99.90;;;;;;4193865;28;20552;-73
2023/01/13 07:53:18;;;;;;;1.20;0.70;;;7.60;99.90;;;;;;4191227;28;20467;-77
2023/01/13 07:55:20;;;;;;;1.13;0.50;;;7.50;99.90;;;;;;4192485;28;20543;-73
2023/01/13 07:57:23;;;;;;;1.13;0.60;;;7.60;99.90;;;;;;4193756;28;20466;-73
2023/01/13 07:59:25;;;;;;;1.23;0.60;;;7.50;99.90;;;;;;4191468;28;20475;-73
2023/01/13 08:01:28;;;;;;;0.47;0.30;;;7.50;99.90;;;;;;4192871;28;20532;-73
2023/01/13 08:03:30;;;;;;;1.07;0.50;;;7.50;99.90;;;;;;4195033;28;20545;-73
2023/01/13 08:05:32;;;;;;;1.10;0.50;;;7.50;99.90;;;;;;4192508;28;20462;-74
2023/01/13 08:07:34;;;;;;;2.50;0.60;;;7.40;99.90;;;;;;4193116;28;20459;-75
2023/01/13 08:09:36;;;;;;;2.30;0.57;;;7.40;99.90;;;;;;4190581;28;20471;-76
2023/01/13 08:11:38;;;;;;;0.57;0.47;;;7.30;99.90;;;;;;4190739;28;20590;-75
2023/01/13 08:13:40;;;;;;;2.00;0.60;;;7.20;99.90;;;;;;4198430;28;20451;-73
2023/01/13 08:15:42;;;;;;;0.80;0.40;;;7.20;99.90;;;;;;4198092;28;20515;-73
2023/01/13 08:17:44;;;;;;;3.40;0.60;;;7.20;99.90;;;;;;4195764;28;20470;-73
2023/01/13 08:19:47;;;;;;;1.73;0.40;;;7.10;99.90;;;;;;4197019;28;20836;-72
2023/01/13 08:21:48;;;;;;;1.63;0.57;;;7.10;99.90;;;;;;4209809;28;20493;-75
2023/01/13 08:23:50;;;;;;;2.53;0.43;;;7.10;99.90;;;;;;4196159;28;20459;-73
2023/01/13 08:25:52;;;;;;;1.80;0.47;;;7.50;99.90;;;;;;4196803;28;20467;-73
2023/01/13 08:27:55;;;;;;;0.60;0.30;;;7.10;99.90;;;;;;4211215;28;20466;-73
2023/01/13 08:29:58;;;;;;;1.07;0.43;;;7.10;99.90;;;;;;4192601;28;20465;-72
2023/01/13 08:32:00;;;;;;;4.67;0.40;;;7.10;99.90;;;;;;4196465;28;21185;-73
2023/01/13 08:34:02;;;;;;;1.73;0.50;;;7.10;99.90;;;;;;4209889;28;20524;-74
2023/01/13 08:36:06;;;;;;;5.83;0.70;;;7.00;99.90;;;;;;4195842;28;20467;-74
2023/01/13 08:38:11;;;;;;;0.57;0.40;;;7.00;99.90;;;;;;4211418;28;20469;-74
2023/01/13 08:40:14;;;;;;;4.53;0.53;;;7.00;99.90;;;;;;4194306;28;20533;-75
2023/01/13 08:42:16;;;;;;;2.40;1.07;;;7.00;99.90;;;;;;4193917;28;20542;-76
2023/01/13 08:44:18;;;;;;;1.93;0.70;;;7.00;99.90;;;;;;4190861;28;20459;-76
2023/01/13 08:46:22;;;;;;;0.73;0.50;;;7.00;99.90;;;;;;4193742;28;20459;-76
2023/01/13 08:48:24;;;;;;;0.63;0.40;;;7.00;99.90;;;;;;4193735;28;20486;-76
2023/01/13 08:50:26;;;;;;;0.97;0.50;;;6.60;99.90;;;;;;4192472;28;20459;-75
2023/01/13 08:52:29;;;;;;;1.57;0.57;;;6.90;99.90;;;;;;4195544;28;21136;-76
2023/01/13 08:54:31;;;;;;;1.00;0.40;;;6.90;99.90;;;;;;4193483;28;20809;-75
2023/01/13 08:56:33;;;;;;;2.43;0.70;;;6.90;99.90;;;;;;4193224;28;20489;-76
2023/01/13 08:58:35;;;;;;;1.93;0.60;;;6.90;99.90;;;;;;4188913;28;20459;-76
2023/01/13 09:00:37;;;;;;;2.03;0.40;;;6.90;99.90;;;;;;4193749;28;20466;-76
2023/01/13 09:02:41;;;;;;;1.90;0.40;;;6.90;99.90;;;;;;4192760;28;20913;-76
2023/01/13 09:04:43;;;;;;;1.20;0.50;;;6.80;99.90;;;;;;4195898;28;20447;-75
2023/01/13 09:06:46;;;;;;;2.00;0.50;;;6.80;99.90;;;;;;4194021;28;20513;-76
2023/01/13 09:08:48;;;;;;;2.80;0.50;;;6.90;99.90;;;;;;4192838;28;20563;-76
2023/01/13 09:10:50;;;;;;;2.57;0.50;;;6.80;99.90;;;;;;4192258;28;20459;-76
2023/01/13 09:15:12;;;;;;;1.17;0.53;;;6.80;99.90;;;;;;4192723;28;20850;-75
2023/01/13 09:17:14;;;;;;;6.17;0.53;;;6.80;99.90;;;;;;4193914;28;20574;-77
2023/01/13 09:19:17;;;;;;;0.40;0.30;;;6.90;99.90;;;;;;4195309;28;20466;-76
2023/01/13 09:21:19;;;;;;;0.87;0.40;;;6.80;99.90;;;;;;4195075;28;20835;-75
2023/01/13 09:23:21;;;;;;;2.50;0.40;;;6.90;99.90;;;;;;4194947;28;20467;-75
2023/01/13 09:25:23;;;;;;;0.77;0.50;;;6.90;99.90;;;;;;4194565;28;20494;-75
2023/01/13 09:27:25;;;;;;;1.37;0.83;;;6.90;99.90;;;;;;4193100;28;20455;-76
2023/01/13 09:29:27;;;;;;;1.07;0.40;;;6.90;99.90;;;;;;4194696;28;20524;-77
2023/01/13 09:31:33;;;;;;;1.60;0.50;;;6.80;99.90;;;;;;4195244;28;20520;-76
2023/01/13 09:36:00;;;;;;;0.97;0.43;;;6.90;99.90;;;;;;4194236;28;20439;-77
2023/01/13 09:38:01;;;;;;;1.50;0.33;;;6.80;99.90;;;;;;4191570;28;21126;-76
2023/01/13 09:40:06;;;;;;;2.87;0.60;;;6.90;99.90;;;;;;4194292;28;21861;-76
2023/01/13 09:44:47;;;;;;;0.97;0.50;;;6.80;99.90;;;;;;4187206;28;21338;-76
2023/01/13 09:46:53;;;;;;;3.80;0.47;;;6.90;99.90;;;;;;4187090;28;20450;-76
2023/01/13 09:48:57;;;;;;;1.63;0.40;;;6.80;99.90;;;;;;4197091;28;20483;-75
2023/01/13 09:51:13;;;;;;;2.10;0.57;;;6.90;99.90;;;;;;4206228;28;20451;-76
2023/01/13 09:53:19;;;;;;;1.33;0.53;;;6.90;99.90;;;;;;4192738;28;21266;-76
2023/01/13 09:55:27;;;;;;;1.43;0.50;;;6.90;99.90;;;;;;4207319;28;20898;-76
2023/01/13 09:57:34;;;;;;;1.20;0.70;;;6.90;99.90;;;;;;4196562;28;21145;-76
2023/01/13 09:59:37;;;;;;;2.23;0.40;;;6.90;99.90;;;;;;4196335;28;20502;-75
2023/01/13 10:01:46;;;;;;;2.93;0.50;;;6.90;99.90;;;;;;4196369;28;20503;-76
2023/01/13 10:03:48;;;;;;;1.43;1.33;;;6.90;99.90;;;;;;4207603;28;21116;-78
2023/01/13 10:06:06;;;;;;;1.67;0.80;;;6.90;99.90;;;;;;4192260;28;20892;-76
2023/01/13 10:08:13;;;;;;;0.83;0.40;;;6.90;99.90;;;;;;4189992;28;21291;-76
2023/01/13 10:10:21;;;;;;;3.83;0.53;;;6.90;99.90;;;;;;4192957;28;20456;-75
2023/01/13 10:14:53;;;;;;;0.80;0.30;;;7.00;99.90;;;;;;4192803;28;20456;-75
2023/01/13 10:17:10;;;;;;;1.30;0.37;;;7.00;99.90;;;;;;4190691;28;20489;-77
2023/01/13 10:19:18;;;;;;;0.40;0.33;;;7.00;99.90;;;;;;4194094;28;20439;-76
2023/01/13 10:21:41;;;;;;;1.10;0.37;;;6.90;99.90;;;;;;4193784;28;20566;-76
2023/01/13 10:23:54;;;;;;;0.77;0.47;;;6.90;99.90;;;;;;4194763;28;21135;-76
2023/01/13 10:26:06;;;;;;;3.60;0.40;;;6.90;99.90;;;;;;4187352;28;20460;-76
2023/01/13 10:28:11;;;;;;;0.50;0.30;;;6.90;99.90;;;;;;4212045;28;20500;-76
2023/01/13 10:30:20;;;;;;;2.40;0.40;;;6.90;99.90;;;;;;4195045;28;21137;-75
2023/01/13 10:32:22;;;;;;;2.30;0.63;;;7.00;99.90;;;;;;4192915;28;20484;-77
2023/01/13 10:34:25;;;;;;;2.60;0.40;;;7.00;99.90;;;;;;4193525;28;20455;-77
2023/01/13 10:36:28;;;;;;;1.77;0.50;;;7.00;99.90;;;;;;4191569;28;20521;-76
2023/01/13 10:38:36;;;;;;;1.87;0.43;;;7.00;99.90;;;;;;4196378;28;20486;-77
2023/01/13 10:40:48;;;;;;;2.97;0.50;;;7.00;99.90;;;;;;4194212;28;20464;-76
2023/01/13 10:43:05;;;;;;;0.97;0.50;;;7.10;99.90;;;;;;4193968;28;20526;-77
2023/01/13 10:45:23;;;;;;;1.23;0.50;;;7.10;99.90;;;;;;4190867;28;20481;-78
2023/01/13 10:47:27;;;;;;;0.83;0.50;;;7.10;99.90;;;;;;4194237;28;20463;-78
2023/01/13 10:49:32;;;;;;;2.07;0.60;;;7.10;99.90;;;;;;4194029;28;20458;-78
2023/01/13 10:51:45;;;;;;;1.00;0.57;;;7.20;99.90;;;;;;4196124;28;20585;-78
2023/01/13 10:53:51;;;;;;;0.90;0.50;;;7.20;99.90;;;;;;4193960;28;20458;-76
2023/01/13 10:56:03;;;;;;;3.80;0.40;;;7.20;99.90;;;;;;4186720;28;20462;-75
2023/01/13 10:58:13;;;;;;;1.60;0.50;;;7.20;99.90;;;;;;4197760;28;20459;-77
2023/01/13 11:00:27;;;;;;;1.70;0.57;;;7.20;99.90;;;;;;4190901;28;20459;-77
2023/01/13 11:02:31;;;;;;;1.23;0.50;;;7.30;99.90;;;;;;4196393;28;20902;-75
2023/01/13 11:04:36;;;;;;;3.97;0.60;;;7.30;99.90;;;;;;4191871;28;20456;-75
2023/01/13 11:06:47;;;;;;;2.07;0.50;;;7.40;99.90;;;;;;4204676;28;20558;-75
2023/01/13 11:08:54;;;;;;;3.73;0.60;;;7.40;99.90;;;;;;4192069;28;20479;-77
2023/01/13 11:10:57;;;;;;;4.80;0.80;;;7.40;99.90;;;;;;4193870;28;20456;-80
2023/01/13 11:13:04;;;;;;;2.73;0.87;;;7.40;99.90;;;;;;4206064;28;20575;-73
2023/01/13 11:15:13;;;;;;;3.07;0.53;;;7.50;99.90;;;;;;4191833;28;21280;-74
2023/01/13 11:17:46;;;;;;;1.77;0.67;;;7.50;99.90;;;;;;4189755;28;20983;-74
2023/01/13 11:19:54;;;;;;;4.63;1.00;;;7.60;99.90;;;;;;4158885;28;20958;-74
2023/01/13 11:22:04;;;;;;;5.47;0.70;;;7.50;99.90;;;;;;4193404;28;21064;-75
2023/01/13 11:24:15;;;;;;;1.60;0.70;;;7.50;99.90;;;;;;4207238;28;20454;-73
2023/01/13 11:26:23;;;;;;;1.53;0.50;;;7.50;99.90;;;;;;4192465;28;20209;-74
2023/01/13 11:28:46;;;;;;;2.67;0.60;;;7.60;99.90;;;;;;4192696;28;20472;-74
2023/01/13 11:30:54;;;;;;;3.40;0.73;;;7.60;99.90;;;;;;4190493;28;20759;-75
2023/01/13 11:33:21;;;;;;;7.87;0.73;;;7.70;99.90;;;;;;4190870;28;20996;-75
2023/01/13 11:35:24;;;;;;;2.87;0.50;;;7.80;99.90;;;;;;4188060;28;20507;-76
2023/01/13 11:37:30;;;;;;;5.80;0.90;;;7.80;99.90;;;;;;4191500;28;20872;-76